createdAt,value
2019-03-02T00:00:15.455Z,9.10
2019-03-02T00:01:15.443Z,8.90
2019-03-02T00:02:15.429Z,9.70
2019-03-02T00:03:15.418Z,10.10
2019-03-02T00:04:15.410Z,9.50
2019-03-02T00:05:15.394Z,9.10
2019-03-02T00:06:15.381Z,8.80
2019-03-02T00:07:15.370Z,9.10
2019-03-02T00:08:15.357Z,10.30
2019-03-02T00:09:15.346Z,9.20
2019-03-02T00:10:15.332Z,11.70
2019-03-02T00:11:17.830Z,9.50
2019-03-02T00:12:15.309Z,10.70
2019-03-02T00:13:15.297Z,11.00
2019-03-02T00:14:15.805Z,10.00
2019-03-02T00:15:15.272Z,10.80
2019-03-02T00:16:15.259Z,11.30
2019-03-02T00:17:15.518Z,10.30
2019-03-02T00:18:15.235Z,8.80
2019-03-02T00:19:15.225Z,9.80
2019-03-02T00:20:18.155Z,10.40
2019-03-02T00:21:15.200Z,11.40
2019-03-02T00:22:15.188Z,10.70
2019-03-02T00:23:15.867Z,10.60
2019-03-02T00:24:15.163Z,11.00
2019-03-02T00:25:15.154Z,11.30
2019-03-02T00:26:15.138Z,11.10
2019-03-02T00:27:17.829Z,10.60
2019-03-02T00:28:15.113Z,11.60
2019-03-02T00:29:15.103Z,11.40
2019-03-02T00:30:17.869Z,11.40
2019-03-02T00:31:15.077Z,12.00
2019-03-02T00:32:15.064Z,10.60
2019-03-02T00:33:16.656Z,11.90
2019-03-02T00:34:15.039Z,11.40
2019-03-02T00:35:15.027Z,10.10
2019-03-02T00:36:16.019Z,12.20
2019-03-02T00:37:15.004Z,11.90
2019-03-02T00:38:14.990Z,11.90
2019-03-02T00:39:15.600Z,11.90
2019-03-02T00:40:14.967Z,12.70
2019-03-02T00:41:14.956Z,11.70
2019-03-02T00:42:16.991Z,11.40
2019-03-02T00:43:14.929Z,11.10
2019-03-02T00:44:14.921Z,11.10
2019-03-02T00:45:15.518Z,11.90
2019-03-02T00:46:14.892Z,11.60
2019-03-02T00:47:14.884Z,12.10
2019-03-02T00:48:14.867Z,12.60
2019-03-02T00:49:14.856Z,10.70
2019-03-02T00:50:14.843Z,11.60
2019-03-02T00:51:14.832Z,11.90
2019-03-02T00:52:14.819Z,11.60
2019-03-02T00:53:14.808Z,12.30
2019-03-02T00:54:14.794Z,12.50
2019-03-02T00:55:14.782Z,12.10
2019-03-02T00:56:14.770Z,11.80
2019-03-02T00:57:18.556Z,12.60
2019-03-02T00:58:14.745Z,13.30
2019-03-02T00:59:14.734Z,12.90
2019-03-02T01:00:15.387Z,15.10
2019-03-02T01:01:14.708Z,13.30
2019-03-02T01:02:14.696Z,15.70
2019-03-02T01:03:15.698Z,13.30
2019-03-02T01:04:14.680Z,13.30
2019-03-02T01:05:14.663Z,12.80
2019-03-02T01:06:14.647Z,12.80
2019-03-02T01:07:14.635Z,13.00
2019-03-02T01:08:14.624Z,13.00
2019-03-02T01:09:14.609Z,13.70
2019-03-02T01:10:14.604Z,13.50
2019-03-02T01:11:14.585Z,12.40
2019-03-02T01:12:14.574Z,15.70
2019-03-02T01:13:16.776Z,14.40
2019-03-02T01:14:14.549Z,13.20
2019-03-02T01:15:14.536Z,13.10
2019-03-02T01:16:16.750Z,12.30
2019-03-02T01:17:14.511Z,16.10
2019-03-02T01:18:14.497Z,13.80
2019-03-02T01:19:17.324Z,14.50
2019-03-02T01:20:14.475Z,13.30
2019-03-02T01:21:14.470Z,15.10
2019-03-02T01:22:16.592Z,14.00
2019-03-02T01:23:14.436Z,14.20
2019-03-02T01:24:14.423Z,14.80
2019-03-02T01:25:14.528Z,15.10
2019-03-02T01:26:14.400Z,14.20
2019-03-02T01:27:14.385Z,13.60
2019-03-02T01:28:14.374Z,14.50
2019-03-02T01:29:15.540Z,16.20
2019-03-02T01:30:14.350Z,14.30
2019-03-02T01:31:14.339Z,16.00
2019-03-02T01:32:16.171Z,14.70
2019-03-02T01:33:14.314Z,15.50
2019-03-02T01:34:14.304Z,16.40
2019-03-02T01:35:16.461Z,17.40
2019-03-02T01:36:14.278Z,15.40
2019-03-02T01:37:14.267Z,14.10
2019-03-02T01:38:15.649Z,16.70
2019-03-02T01:39:14.242Z,15.80
2019-03-02T01:40:14.226Z,17.00
2019-03-02T01:41:17.697Z,18.00
2019-03-02T01:42:14.199Z,16.30
2019-03-02T01:43:14.189Z,16.80
2019-03-02T01:44:16.267Z,18.20
2019-03-02T01:45:14.165Z,15.30
2019-03-02T01:46:14.150Z,16.20
2019-03-02T01:47:15.744Z,16.40
2019-03-02T01:48:14.127Z,15.50
2019-03-02T01:49:14.113Z,16.40
2019-03-02T01:50:14.101Z,16.70
2019-03-02T01:51:14.090Z,15.40
2019-03-02T01:52:14.076Z,15.50
2019-03-02T01:53:14.064Z,15.00
2019-03-02T01:54:14.052Z,14.60
2019-03-02T01:55:14.040Z,18.40
2019-03-02T01:56:14.027Z,18.50
2019-03-02T01:57:17.190Z,15.50
2019-03-02T01:58:14.002Z,15.80
2019-03-02T01:59:13.988Z,16.20
2019-03-02T02:00:14.569Z,15.20
2019-03-02T02:01:13.962Z,15.90
2019-03-02T02:02:13.950Z,16.70
2019-03-02T02:03:13.938Z,17.50
2019-03-02T02:04:13.924Z,19.90
2019-03-02T02:05:13.911Z,16.60
2019-03-02T02:06:13.900Z,16.80
2019-03-02T02:07:14.426Z,17.90
2019-03-02T02:08:13.875Z,18.40
2019-03-02T02:09:13.862Z,16.70
2019-03-02T02:10:13.849Z,15.90
2019-03-02T02:11:14.551Z,16.80
2019-03-02T02:12:13.823Z,16.20
2019-03-02T02:13:13.811Z,16.90
2019-03-02T02:14:14.820Z,17.30
2019-03-02T02:15:13.785Z,16.70
2019-03-02T02:16:13.774Z,16.90
2019-03-02T02:17:14.431Z,18.60
2019-03-02T02:18:13.746Z,18.40
2019-03-02T02:19:13.733Z,19.10
2019-03-02T02:20:14.595Z,21.00
2019-03-02T02:21:13.709Z,18.60
2019-03-02T02:22:13.695Z,20.60
2019-03-02T02:23:14.145Z,16.80
2019-03-02T02:24:13.671Z,18.80
2019-03-02T02:25:13.658Z,18.00
2019-03-02T02:26:13.645Z,17.30
2019-03-02T02:27:13.633Z,18.80
2019-03-02T02:28:13.622Z,17.00
2019-03-02T02:29:13.607Z,17.00
2019-03-02T02:30:18.691Z,18.20
2019-03-02T02:31:13.581Z,19.10
2019-03-02T02:32:13.569Z,17.60
2019-03-02T02:33:13.557Z,17.30
2019-03-02T02:34:21.697Z,17.10
2019-03-02T02:35:13.543Z,17.30
2019-03-02T02:36:14.051Z,16.90
2019-03-02T02:37:13.506Z,19.50
2019-03-02T02:38:16.119Z,20.60
2019-03-02T02:39:13.493Z,18.20
2019-03-02T02:40:13.863Z,19.40
2019-03-02T02:41:21.997Z,18.70
2019-03-02T02:42:13.445Z,18.70
2019-03-02T02:43:20.423Z,19.00
2019-03-02T02:44:13.415Z,19.70
2019-03-02T02:45:15.205Z,19.60
2019-03-02T02:46:13.389Z,19.90
2019-03-02T02:47:14.008Z,19.40
2019-03-02T02:48:13.364Z,17.50
2019-03-02T02:49:13.350Z,17.90
2019-03-02T02:50:13.352Z,19.30
2019-03-02T02:51:13.323Z,19.60
2019-03-02T02:52:13.311Z,18.40
2019-03-02T02:53:13.311Z,19.20
2019-03-02T02:54:13.285Z,20.50
2019-03-02T02:55:13.272Z,18.00
2019-03-02T02:56:14.339Z,18.20
2019-03-02T02:57:13.246Z,20.00
2019-03-02T02:58:17.443Z,21.20
2019-03-02T02:59:13.220Z,20.20
2019-03-02T03:00:16.535Z,20.10
2019-03-02T03:01:13.198Z,19.20
2019-03-02T03:02:13.186Z,19.10
2019-03-02T03:03:15.935Z,18.40
2019-03-02T03:04:13.156Z,19.10
2019-03-02T03:05:15.202Z,18.40
2019-03-02T03:06:13.152Z,20.60
2019-03-02T03:07:14.291Z,19.70
2019-03-02T03:08:13.110Z,20.40
2019-03-02T03:09:13.094Z,18.00
2019-03-02T03:10:13.076Z,18.50
2019-03-02T03:11:13.066Z,17.50
2019-03-02T03:12:13.051Z,20.20
2019-03-02T03:13:13.040Z,20.40
2019-03-02T03:14:15.055Z,20.70
2019-03-02T03:15:13.010Z,18.90
2019-03-02T03:16:16.466Z,22.40
2019-03-02T03:17:12.984Z,20.00
2019-03-02T03:18:14.985Z,21.60
2019-03-02T03:19:12.961Z,17.70
2019-03-02T03:20:12.949Z,17.50
2019-03-02T03:21:12.937Z,18.20
2019-03-02T03:22:12.920Z,19.90
2019-03-02T03:23:12.907Z,18.50
2019-03-02T03:24:12.894Z,20.60
2019-03-02T03:25:13.908Z,17.60
2019-03-02T03:26:12.865Z,21.70
2019-03-02T03:27:13.211Z,19.70
2019-03-02T03:28:12.840Z,21.10
2019-03-02T03:29:12.826Z,19.30
2019-03-02T03:30:12.812Z,20.00
2019-03-02T03:31:21.371Z,21.10
2019-03-02T03:32:12.825Z,19.10
2019-03-02T03:33:12.774Z,19.40
2019-03-02T03:34:12.762Z,20.00
2019-03-02T03:35:17.023Z,18.60
2019-03-02T03:36:12.735Z,19.80
2019-03-02T03:37:13.449Z,19.50
2019-03-02T03:38:12.709Z,21.00
2019-03-02T03:39:12.999Z,21.70
2019-03-02T03:40:12.683Z,18.60
2019-03-02T03:41:12.669Z,18.10
2019-03-02T03:42:22.292Z,18.70
2019-03-02T03:43:12.643Z,19.70
2019-03-02T03:44:17.848Z,18.30
2019-03-02T03:45:12.617Z,19.00
2019-03-02T03:46:17.791Z,19.70
2019-03-02T03:47:12.590Z,19.70
2019-03-02T03:48:12.987Z,20.00
2019-03-02T03:49:12.564Z,20.20
2019-03-02T03:50:13.985Z,19.90
2019-03-02T03:51:12.543Z,20.50
2019-03-02T03:52:12.525Z,19.70
2019-03-02T03:53:12.512Z,19.30
2019-03-02T03:54:12.500Z,20.70
2019-03-02T03:55:12.486Z,19.40
2019-03-02T03:56:12.473Z,19.40
2019-03-02T03:57:17.075Z,19.10
2019-03-02T03:58:13.083Z,17.80
2019-03-02T03:59:14.323Z,19.50
2019-03-02T04:00:12.420Z,17.60
2019-03-02T04:01:17.235Z,21.30
2019-03-02T04:02:12.396Z,19.60
2019-03-02T04:03:13.729Z,20.50
2019-03-02T04:04:12.367Z,20.00
2019-03-02T04:05:12.357Z,20.50
2019-03-02T04:06:12.349Z,18.80
2019-03-02T04:07:12.331Z,18.40
2019-03-02T04:08:12.327Z,19.30
2019-03-02T04:09:12.303Z,18.80
2019-03-02T04:10:12.289Z,20.80
2019-03-02T04:11:12.277Z,19.90
2019-03-02T04:12:12.285Z,20.80
2019-03-02T04:13:12.251Z,18.40
2019-03-02T04:14:12.241Z,19.80
2019-03-02T04:15:12.224Z,18.70
2019-03-02T04:16:16.220Z,18.30
2019-03-02T04:17:12.199Z,19.60
2019-03-02T04:18:12.690Z,17.50
2019-03-02T04:19:12.172Z,17.70
2019-03-02T04:20:12.803Z,19.50
2019-03-02T04:21:12.153Z,17.10
2019-03-02T04:22:12.141Z,16.70
2019-03-02T04:23:12.127Z,17.80
2019-03-02T04:24:12.108Z,16.00
2019-03-02T04:25:12.924Z,17.00
2019-03-02T04:26:12.082Z,16.00
2019-03-02T04:27:15.355Z,15.80
2019-03-02T04:28:12.056Z,15.80
2019-03-02T04:29:12.042Z,16.10
2019-03-02T04:30:12.028Z,18.90
2019-03-02T04:31:12.018Z,16.10
2019-03-02T04:32:12.007Z,16.70
2019-03-02T04:33:11.993Z,17.70
2019-03-02T04:34:11.977Z,16.00
2019-03-02T04:35:11.965Z,15.80
2019-03-02T04:36:11.951Z,16.10
2019-03-02T04:37:11.939Z,15.00
2019-03-02T04:38:11.926Z,17.10
2019-03-02T04:39:13.676Z,18.50
2019-03-02T04:40:11.909Z,18.60
2019-03-02T04:41:11.886Z,20.40
2019-03-02T04:42:14.586Z,17.60
2019-03-02T04:43:11.861Z,16.50
2019-03-02T04:44:11.850Z,17.20
2019-03-02T04:45:11.836Z,16.50
2019-03-02T04:46:15.406Z,17.20
2019-03-02T04:47:11.810Z,17.50
2019-03-02T04:48:11.797Z,15.50
2019-03-02T04:49:14.621Z,20.70
2019-03-02T04:50:11.770Z,16.60
2019-03-02T04:51:11.756Z,16.00
2019-03-02T04:53:11.732Z,16.10
2019-03-02T04:54:11.719Z,15.40
2019-03-02T04:55:13.587Z,19.20
2019-03-02T04:56:11.694Z,18.60
2019-03-02T04:57:11.683Z,17.40
2019-03-02T04:58:12.830Z,18.70
2019-03-02T04:59:11.657Z,18.70
2019-03-02T05:00:11.644Z,19.70
2019-03-02T05:01:11.629Z,19.70
2019-03-02T05:02:11.616Z,18.20
2019-03-02T05:03:11.604Z,18.60
2019-03-02T05:04:11.598Z,19.80
2019-03-02T05:05:11.578Z,17.50
2019-03-02T05:06:11.566Z,17.10
2019-03-02T05:07:11.551Z,20.10
2019-03-02T05:08:11.541Z,18.10
2019-03-02T05:09:13.587Z,19.90
2019-03-02T05:10:11.512Z,16.10
2019-03-02T05:11:11.501Z,17.90
2019-03-02T05:12:14.356Z,18.20
2019-03-02T05:13:11.477Z,18.90
2019-03-02T05:14:11.461Z,19.70
2019-03-02T05:15:11.945Z,18.30
2019-03-02T05:16:11.437Z,18.80
2019-03-02T05:17:11.423Z,19.30
2019-03-02T05:18:14.694Z,19.00
2019-03-02T05:19:11.396Z,17.70
2019-03-02T05:20:11.387Z,18.30
2019-03-02T05:21:11.372Z,19.80
2019-03-02T05:22:11.379Z,18.30
2019-03-02T05:23:11.347Z,18.70
2019-03-02T05:24:11.332Z,20.30
2019-03-02T05:25:11.321Z,16.70
2019-03-02T05:26:11.308Z,19.00
2019-03-02T05:27:11.295Z,20.50
2019-03-02T05:28:11.281Z,18.20
2019-03-02T05:29:11.270Z,17.40
2019-03-02T05:30:11.258Z,19.50
2019-03-02T05:31:11.244Z,18.90
2019-03-02T05:32:12.606Z,16.30
2019-03-02T05:33:11.217Z,17.60
2019-03-02T05:34:11.204Z,17.30
2019-03-02T05:35:11.943Z,17.40
2019-03-02T05:36:11.179Z,17.40
2019-03-02T05:37:11.166Z,18.00
2019-03-02T05:38:11.736Z,19.70
2019-03-02T05:39:13.925Z,18.10
2019-03-02T05:40:11.129Z,16.90
2019-03-02T05:41:11.114Z,16.20
2019-03-02T05:42:13.637Z,17.50
2019-03-02T05:43:11.088Z,18.20
2019-03-02T05:44:11.075Z,16.70
2019-03-02T05:45:11.063Z,14.80
2019-03-02T05:46:11.050Z,17.50
2019-03-02T05:47:11.037Z,18.30
2019-03-02T05:48:11.025Z,17.50
2019-03-02T05:49:11.013Z,17.80
2019-03-02T05:50:11.002Z,16.50
2019-03-02T05:51:10.987Z,19.80
2019-03-02T05:52:10.976Z,17.70
2019-03-02T05:53:10.960Z,19.80
2019-03-02T05:54:10.949Z,18.00
2019-03-02T05:55:14.404Z,18.00
2019-03-02T05:56:10.922Z,16.10
2019-03-02T05:57:10.911Z,16.70
2019-03-02T05:58:12.566Z,17.80
2019-03-02T05:59:10.883Z,16.40
2019-03-02T06:00:10.871Z,17.80
2019-03-02T06:01:10.859Z,17.40
2019-03-02T06:02:13.844Z,18.90
2019-03-02T06:03:10.834Z,17.80
2019-03-02T06:04:10.820Z,16.00
2019-03-02T06:05:10.810Z,17.00
2019-03-02T06:06:10.794Z,17.40
2019-03-02T06:07:10.784Z,17.50
2019-03-02T06:08:10.768Z,16.90
2019-03-02T06:09:13.878Z,15.00
2019-03-02T06:10:10.745Z,17.70
2019-03-02T06:11:10.732Z,16.80
2019-03-02T06:12:11.957Z,16.50
2019-03-02T06:13:10.706Z,19.20
2019-03-02T06:14:10.693Z,18.20
2019-03-02T06:15:10.678Z,20.90
2019-03-02T06:16:10.666Z,17.20
2019-03-02T06:17:10.655Z,18.00
2019-03-02T06:18:10.642Z,17.80
2019-03-02T06:19:10.629Z,16.40
2019-03-02T06:20:10.616Z,17.00
2019-03-02T06:21:10.933Z,17.60
2019-03-02T06:22:10.591Z,16.00
2019-03-02T06:23:10.579Z,16.60
2019-03-02T06:24:10.567Z,15.50
2019-03-02T06:25:19.213Z,15.90
2019-03-02T06:26:10.540Z,15.90
2019-03-02T06:27:10.959Z,19.80
2019-03-02T06:28:10.514Z,16.60
2019-03-02T06:29:10.510Z,18.50
2019-03-02T06:30:10.488Z,17.10
2019-03-02T06:31:10.478Z,17.90
2019-03-02T06:32:10.464Z,18.90
2019-03-02T06:33:10.453Z,17.10
2019-03-02T06:34:10.440Z,16.80
2019-03-02T06:35:10.427Z,17.50
2019-03-02T06:36:10.417Z,16.10
2019-03-02T06:37:10.402Z,16.40
2019-03-02T06:38:10.387Z,16.90
2019-03-02T06:39:10.378Z,17.10
2019-03-02T06:40:10.364Z,18.80
2019-03-02T06:41:10.353Z,16.40
2019-03-02T06:42:11.185Z,15.70
2019-03-02T06:43:10.326Z,17.70
2019-03-02T06:44:10.313Z,19.00
2019-03-02T06:45:10.305Z,17.20
2019-03-02T06:46:10.291Z,17.90
2019-03-02T06:47:10.274Z,16.00
2019-03-02T06:48:10.791Z,15.60
2019-03-02T06:49:10.251Z,15.60
2019-03-02T06:50:10.237Z,18.50
2019-03-02T06:51:11.258Z,16.00
2019-03-02T06:52:10.211Z,16.60
2019-03-02T06:53:10.200Z,18.40
2019-03-02T06:54:12.898Z,17.40
2019-03-02T06:55:10.173Z,16.80
2019-03-02T06:56:10.161Z,19.10
2019-03-02T06:57:10.669Z,17.00
2019-03-02T06:58:10.136Z,17.40
2019-03-02T06:59:10.125Z,17.70
2019-03-02T07:00:10.670Z,18.50
2019-03-02T07:01:10.098Z,17.10
2019-03-02T07:02:10.085Z,17.60
2019-03-02T07:03:11.141Z,17.70
2019-03-02T07:04:10.877Z,16.60
2019-03-02T07:05:10.049Z,18.80
2019-03-02T07:06:11.702Z,17.80
2019-03-02T07:07:10.022Z,16.70
2019-03-02T07:08:10.011Z,16.30
2019-03-02T07:09:10.693Z,17.30
2019-03-02T07:10:09.984Z,16.60
2019-03-02T07:11:09.971Z,17.50
2019-03-02T07:12:10.267Z,17.60
2019-03-02T07:13:09.945Z,17.30
2019-03-02T07:14:09.934Z,17.00
2019-03-02T07:15:09.921Z,18.40
2019-03-02T07:16:09.908Z,18.40
2019-03-02T07:17:09.898Z,17.90
2019-03-02T07:18:09.886Z,19.20
2019-03-02T07:19:09.870Z,19.10
2019-03-02T07:20:09.860Z,16.40
2019-03-02T07:21:09.847Z,19.60
2019-03-02T07:22:09.834Z,16.90
2019-03-02T07:23:09.821Z,17.30
2019-03-02T07:24:09.809Z,17.30
2019-03-02T07:25:09.796Z,17.40
2019-03-02T07:26:09.781Z,17.30
2019-03-02T07:27:09.771Z,17.10
2019-03-02T07:28:09.762Z,17.70
2019-03-02T07:29:09.745Z,18.10
2019-03-02T07:30:09.732Z,17.30
2019-03-02T07:31:09.722Z,20.10
2019-03-02T07:32:09.707Z,17.60
2019-03-02T07:33:09.695Z,16.60
2019-03-02T07:34:09.829Z,20.10
2019-03-02T07:35:09.670Z,17.40
2019-03-02T07:36:09.658Z,18.60
2019-03-02T07:37:10.221Z,18.00
2019-03-02T07:38:09.637Z,17.80
2019-03-02T07:39:09.619Z,16.50
2019-03-02T07:40:10.146Z,17.60
2019-03-02T07:41:09.594Z,18.60
2019-03-02T07:42:09.581Z,17.30
2019-03-02T07:43:10.482Z,20.50
2019-03-02T07:44:09.557Z,17.40
2019-03-02T07:45:09.544Z,16.40
2019-03-02T07:46:11.875Z,16.80
2019-03-02T07:47:09.522Z,17.90
2019-03-02T07:48:09.507Z,16.30
2019-03-02T07:49:13.133Z,17.60
2019-03-02T07:50:09.482Z,17.40
2019-03-02T07:51:09.469Z,18.40
2019-03-02T07:52:09.456Z,17.80
2019-03-02T07:53:09.445Z,17.40
2019-03-02T07:54:09.433Z,17.40
2019-03-02T07:55:09.419Z,16.10
2019-03-02T07:56:09.408Z,17.80
2019-03-02T07:57:10.038Z,17.90
2019-03-02T07:58:09.382Z,16.20
2019-03-02T07:59:09.370Z,20.00
2019-03-02T08:00:09.362Z,16.00
2019-03-02T08:01:12.914Z,17.10
2019-03-02T08:02:09.332Z,20.30
2019-03-02T08:03:09.321Z,17.10
2019-03-02T08:04:09.309Z,17.50
2019-03-02T08:05:10.967Z,18.20
2019-03-02T08:06:09.283Z,18.60
2019-03-02T08:07:09.280Z,15.60
2019-03-02T08:08:10.810Z,16.00
2019-03-02T08:09:09.246Z,16.60
2019-03-02T08:10:09.235Z,17.50
2019-03-02T08:11:10.616Z,16.00
2019-03-02T08:12:09.209Z,16.50
2019-03-02T08:13:09.196Z,17.40
2019-03-02T08:14:12.312Z,20.30
2019-03-02T08:15:09.170Z,19.70
2019-03-02T08:16:09.160Z,18.10
2019-03-02T08:17:09.746Z,17.20
2019-03-02T08:18:09.134Z,18.80
2019-03-02T08:19:09.140Z,16.80
2019-03-02T08:20:09.110Z,18.40
2019-03-02T08:21:09.097Z,18.50
2019-03-02T08:22:11.093Z,18.70
2019-03-02T08:23:09.075Z,19.90
2019-03-02T08:24:09.062Z,18.00
2019-03-02T08:25:09.047Z,20.00
2019-03-02T08:26:09.039Z,18.30
2019-03-02T08:27:10.401Z,19.50
2019-03-02T08:28:09.935Z,17.70
2019-03-02T08:29:08.999Z,18.70
2019-03-02T08:30:08.986Z,19.20
2019-03-02T08:31:09.894Z,20.00
2019-03-02T08:32:10.367Z,18.70
2019-03-02T08:33:08.948Z,18.50
2019-03-02T08:34:09.735Z,18.90
2019-03-02T08:35:08.925Z,18.10
2019-03-02T08:36:08.912Z,18.90
2019-03-02T08:37:08.899Z,20.40
2019-03-02T08:38:08.885Z,21.10
2019-03-02T08:39:10.655Z,23.10
2019-03-02T08:40:08.861Z,18.70
2019-03-02T08:41:08.850Z,19.90
2019-03-02T08:42:11.855Z,19.80
2019-03-02T08:43:08.826Z,22.30
2019-03-02T08:44:08.814Z,19.50
2019-03-02T08:45:08.800Z,20.60
2019-03-02T08:46:08.856Z,20.10
2019-03-02T08:47:09.067Z,20.30
2019-03-02T08:48:08.764Z,19.70
2019-03-02T08:49:08.753Z,20.60
2019-03-02T08:50:08.738Z,19.70
2019-03-02T08:51:08.727Z,20.00
2019-03-02T08:52:08.715Z,22.50
2019-03-02T08:53:08.704Z,18.20
2019-03-02T08:54:08.691Z,20.80
2019-03-02T08:55:08.682Z,21.30
2019-03-02T08:56:09.880Z,21.20
2019-03-02T08:57:08.657Z,19.60
2019-03-02T08:58:08.643Z,21.80
2019-03-02T08:59:08.631Z,19.70
2019-03-02T09:00:09.038Z,19.60
2019-03-02T09:01:08.606Z,19.60
2019-03-02T09:02:08.594Z,19.90
2019-03-02T09:03:08.584Z,19.00
2019-03-02T09:04:10.186Z,19.60
2019-03-02T09:05:08.559Z,18.50
2019-03-02T09:06:11.611Z,19.30
2019-03-02T09:07:11.452Z,19.30
2019-03-02T09:08:08.523Z,17.90
2019-03-02T09:09:08.512Z,19.70
2019-03-02T09:10:09.975Z,19.00
2019-03-02T09:11:08.489Z,20.30
2019-03-02T09:12:08.475Z,20.10
2019-03-02T09:13:08.463Z,18.90
2019-03-02T09:14:09.567Z,19.80
2019-03-02T09:15:08.443Z,18.10
2019-03-02T09:16:08.428Z,17.80
2019-03-02T09:17:08.416Z,19.70
2019-03-02T09:18:08.403Z,21.60
2019-03-02T09:19:08.393Z,19.30
2019-03-02T09:20:10.385Z,19.90
2019-03-02T09:21:09.036Z,18.20
2019-03-02T09:22:08.357Z,17.50
2019-03-02T09:23:08.346Z,17.80
2019-03-02T09:24:09.305Z,18.30
2019-03-02T09:25:08.322Z,19.70
2019-03-02T09:26:08.308Z,17.20
2019-03-02T09:27:08.299Z,17.80
2019-03-02T09:28:08.287Z,20.20
2019-03-02T09:29:08.281Z,17.80
2019-03-02T09:30:08.265Z,16.90
2019-03-02T09:31:08.253Z,18.90
2019-03-02T09:32:10.934Z,19.20
2019-03-02T09:33:08.230Z,17.20
2019-03-02T09:34:08.220Z,18.10
2019-03-02T09:35:08.212Z,19.70
2019-03-02T09:36:08.199Z,18.40
2019-03-02T09:37:08.186Z,19.50
2019-03-02T09:38:08.175Z,18.40
2019-03-02T09:39:08.164Z,19.00
2019-03-02T09:40:10.189Z,18.00
2019-03-02T09:41:08.144Z,17.60
2019-03-02T09:42:08.144Z,18.00
2019-03-02T09:43:08.295Z,20.70
2019-03-02T09:44:08.107Z,17.80
2019-03-02T09:45:11.544Z,19.40
2019-03-02T09:46:08.087Z,19.50
2019-03-02T09:47:08.979Z,17.40
2019-03-02T09:48:08.066Z,18.60
2019-03-02T09:49:08.052Z,20.90
2019-03-02T09:50:10.009Z,19.50
2019-03-02T09:51:08.033Z,19.40
2019-03-02T09:52:08.024Z,19.70
2019-03-02T09:53:08.011Z,18.70
2019-03-02T09:54:07.998Z,20.10
2019-03-02T09:55:08.064Z,21.90
2019-03-02T09:56:07.976Z,19.60
2019-03-02T09:57:07.964Z,19.20
2019-03-02T09:58:07.958Z,19.20
2019-03-02T09:59:07.944Z,20.10
2019-03-02T10:00:07.932Z,18.80
2019-03-02T10:01:07.923Z,18.90
2019-03-02T10:02:10.524Z,19.40
2019-03-02T10:03:07.901Z,19.90
2019-03-02T10:04:07.892Z,21.00
2019-03-02T10:05:07.880Z,19.30
2019-03-02T10:06:07.869Z,20.70
2019-03-02T10:07:07.860Z,19.30
2019-03-02T10:08:09.860Z,20.90
2019-03-02T10:09:07.838Z,19.60
2019-03-02T10:10:07.824Z,22.00
2019-03-02T10:11:07.816Z,22.30
2019-03-02T10:12:10.068Z,20.90
2019-03-02T10:13:08.269Z,20.20
2019-03-02T10:14:07.782Z,21.40
2019-03-02T10:15:07.773Z,21.50
2019-03-02T10:16:07.760Z,21.50
2019-03-02T10:17:07.753Z,20.70
2019-03-02T10:18:10.515Z,20.80
2019-03-02T10:19:07.729Z,19.10
2019-03-02T10:20:07.718Z,20.20
2019-03-02T10:21:07.709Z,20.60
2019-03-02T10:22:07.696Z,20.80
2019-03-02T10:23:07.685Z,20.20
2019-03-02T10:24:07.675Z,20.00
2019-03-02T10:25:07.667Z,21.90
2019-03-02T10:26:08.782Z,18.30
2019-03-02T10:27:07.647Z,19.80
2019-03-02T10:28:07.635Z,20.30
2019-03-02T10:29:10.877Z,21.70
2019-03-02T10:30:07.613Z,20.20
2019-03-02T10:31:07.602Z,21.90
2019-03-02T10:32:07.592Z,19.60
2019-03-02T10:33:07.580Z,17.60
2019-03-02T10:34:07.736Z,20.90
2019-03-02T10:35:07.559Z,19.50
2019-03-02T10:36:07.548Z,21.70
2019-03-02T10:37:08.668Z,21.40
2019-03-02T10:38:07.528Z,19.30
2019-03-02T10:39:07.522Z,21.00
2019-03-02T10:40:08.867Z,19.10
2019-03-02T10:41:07.500Z,21.70
2019-03-02T10:42:07.490Z,18.10
2019-03-02T10:43:10.612Z,24.20
2019-03-02T10:44:07.470Z,21.90
2019-03-02T10:45:07.460Z,19.10
2019-03-02T10:46:07.448Z,19.40
2019-03-02T10:47:07.439Z,21.60
2019-03-02T10:48:07.428Z,20.20
2019-03-02T10:49:09.858Z,18.50
2019-03-02T10:50:07.408Z,20.90
2019-03-02T10:51:07.399Z,19.20
2019-03-02T10:52:09.750Z,22.50
2019-03-02T10:53:07.382Z,20.50
2019-03-02T10:54:07.372Z,20.90
2019-03-02T10:55:08.383Z,20.20
2019-03-02T10:56:07.357Z,19.30
2019-03-02T10:57:07.341Z,18.80
2019-03-02T10:58:07.331Z,22.70
2019-03-02T10:59:07.322Z,18.70
2019-03-02T11:00:09.220Z,19.80
2019-03-02T11:01:08.462Z,19.60
2019-03-02T11:02:07.291Z,21.50
2019-03-02T11:03:07.282Z,19.90
2019-03-02T11:04:08.327Z,18.80
2019-03-02T11:05:07.266Z,19.50
2019-03-02T11:06:07.328Z,19.60
2019-03-02T11:07:09.100Z,19.10
2019-03-02T11:08:07.238Z,18.60
2019-03-02T11:09:07.227Z,18.60
2019-03-02T11:10:07.217Z,16.90
2019-03-02T11:11:07.205Z,18.20
2019-03-02T11:12:07.974Z,17.90
2019-03-02T11:13:07.186Z,18.40
2019-03-02T11:14:07.178Z,16.20
2019-03-02T11:15:07.672Z,17.30
2019-03-02T11:16:07.157Z,16.20
2019-03-02T11:17:07.150Z,16.60
2019-03-02T11:18:07.147Z,16.80
2019-03-02T11:19:07.965Z,18.10
2019-03-02T11:20:07.127Z,16.70
2019-03-02T11:21:07.112Z,16.80
2019-03-02T11:22:10.866Z,17.00
2019-03-02T11:23:07.094Z,16.70
2019-03-02T11:24:07.088Z,16.80
2019-03-02T11:25:07.077Z,17.90
2019-03-02T11:26:07.067Z,19.00
2019-03-02T11:27:09.695Z,15.20
2019-03-02T11:28:07.045Z,17.70
2019-03-02T11:29:07.037Z,17.40
2019-03-02T11:30:07.028Z,16.80
2019-03-02T11:31:07.019Z,18.20
2019-03-02T11:32:07.009Z,16.60
2019-03-02T11:33:07.002Z,17.90
2019-03-02T11:34:06.992Z,16.20
2019-03-02T11:35:10.325Z,16.00
2019-03-02T11:36:06.974Z,15.70
2019-03-02T11:37:06.965Z,17.40
2019-03-02T11:38:06.954Z,17.10
2019-03-02T11:39:06.946Z,19.00
2019-03-02T11:40:06.934Z,14.60
2019-03-02T11:41:09.089Z,15.40
2019-03-02T11:42:10.269Z,17.70
2019-03-02T11:43:06.907Z,15.90
2019-03-02T11:44:06.901Z,13.50
2019-03-02T11:45:06.897Z,15.90
2019-03-02T11:46:06.879Z,14.10
2019-03-02T11:47:06.871Z,16.60
2019-03-02T11:48:09.211Z,17.50
2019-03-02T11:49:06.853Z,15.40
2019-03-02T11:50:06.843Z,17.30
2019-03-02T11:51:06.833Z,16.80
2019-03-02T11:52:06.825Z,17.20
2019-03-02T11:53:06.852Z,15.30
2019-03-02T11:54:06.809Z,14.30
2019-03-02T11:55:06.795Z,14.40
2019-03-02T11:56:07.570Z,16.10
2019-03-02T11:57:07.998Z,16.40
2019-03-02T11:58:06.769Z,15.50
2019-03-02T11:59:09.400Z,14.50
2019-03-02T12:00:06.752Z,15.50
2019-03-02T12:01:06.744Z,15.30
2019-03-02T12:02:15.376Z,15.20
2019-03-02T12:03:06.720Z,14.00
2019-03-02T12:04:06.716Z,15.20
2019-03-02T12:05:09.099Z,16.80
2019-03-02T12:06:07.075Z,14.50
2019-03-02T12:07:06.686Z,14.60
2019-03-02T12:08:06.675Z,14.90
2019-03-02T12:09:06.666Z,16.90
2019-03-02T12:10:06.672Z,17.40
2019-03-02T12:11:07.084Z,14.90
2019-03-02T12:12:06.636Z,16.30
2019-03-02T12:13:06.625Z,13.90
2019-03-02T12:14:09.927Z,14.30
2019-03-02T12:15:06.606Z,13.70
2019-03-02T12:16:06.605Z,14.50
2019-03-02T12:17:06.586Z,15.60
2019-03-02T12:18:06.575Z,15.00
2019-03-02T12:19:06.566Z,14.90
2019-03-02T12:20:08.816Z,13.30
2019-03-02T12:21:06.548Z,14.40
2019-03-02T12:22:06.538Z,14.00
2019-03-02T12:23:06.528Z,15.30
2019-03-02T12:24:14.771Z,13.80
2019-03-02T12:25:06.510Z,13.90
2019-03-02T12:26:07.857Z,14.80
2019-03-02T12:27:06.488Z,14.20
2019-03-02T12:28:06.480Z,14.10
2019-03-02T12:29:09.320Z,14.50
2019-03-02T12:30:06.462Z,13.30
2019-03-02T12:31:06.452Z,13.10
2019-03-02T12:32:07.568Z,14.90
2019-03-02T12:33:06.433Z,13.30
2019-03-02T12:34:07.589Z,13.20
2019-03-02T12:35:06.414Z,12.70
2019-03-02T12:36:06.401Z,14.10
2019-03-02T12:37:06.394Z,12.70
2019-03-02T12:38:07.272Z,14.10
2019-03-02T12:39:07.239Z,12.80
2019-03-02T12:40:06.364Z,13.00
2019-03-02T12:41:06.354Z,13.10
2019-03-02T12:42:06.342Z,12.80
2019-03-02T12:43:07.452Z,12.60
2019-03-02T12:44:08.278Z,13.00
2019-03-02T12:45:06.315Z,12.60
2019-03-02T12:46:09.364Z,15.00
2019-03-02T12:47:06.292Z,11.70
2019-03-02T12:48:06.290Z,13.60
2019-03-02T12:49:07.034Z,13.70
2019-03-02T12:50:06.263Z,12.10
2019-03-02T12:51:06.252Z,14.40
2019-03-02T12:52:06.244Z,13.20
2019-03-02T12:53:06.233Z,12.00
2019-03-02T12:54:06.338Z,11.70